Time;durP1;ratioP1;P1;durP2;ratioP2;P2;SDS_P1;SDS_P2;PMS_P1;PMS_P2;Temp;Humidity;BMP_temperature;BMP_pressure;BME280_temperature;BME280_humidity;BME280_pressure;Samples;Min_cycle;Max_cycle;Signal;HPM_P1;HPM_P2
2022/12/08 00:01:10;;;;;;;11.45;2.45;;;3.90;99.90;;;;;;5105427;28;20047;-76
2022/12/08 00:03:37;;;;;;;9.00;2.05;;;3.10;99.90;;;;;;5112532;28;20115;-77
2022/12/08 00:11:34;;;;;;;6.95;1.83;;;3.00;99.90;;;;;;5092222;28;20039;-76
2022/12/08 00:13:59;;;;;;;7.75;1.90;;;3.00;99.90;;;;;;5085938;28;20035;-77
2022/12/08 00:16:25;;;;;;;6.18;1.75;;;3.00;99.90;;;;;;5058647;28;20040;-76
2022/12/08 00:18:51;;;;;;;6.85;1.55;;;3.00;99.90;;;;;;5093824;28;20051;-76
2022/12/08 00:21:17;;;;;;;6.65;1.75;;;3.00;99.90;;;;;;5100963;28;20039;-74
2022/12/08 00:23:43;;;;;;;4.68;1.40;;;3.20;99.90;;;;;;5106189;28;20236;-76
2022/12/08 00:26:08;;;;;;;4.88;1.80;;;3.00;99.90;;;;;;5090225;28;20608;-76
2022/12/08 00:28:36;;;;;;;4.38;1.83;;;3.00;99.90;;;;;;5096530;28;20496;-76
2022/12/08 00:31:09;;;;;;;6.63;1.60;;;4.70;99.90;;;;;;5098415;28;20040;-76
2022/12/08 00:33:35;;;;;;;3.95;1.27;;;3.00;99.90;;;;;;5074765;28;20036;-76
2022/12/08 00:36:12;;;;;;;6.43;1.40;;;3.00;99.90;;;;;;5109429;28;20519;-75
2022/12/08 00:38:39;;;;;;;6.97;1.42;;;3.00;99.90;;;;;;5078320;28;20078;-77
2022/12/08 00:41:13;;;;;;;6.32;1.55;;;3.00;99.90;;;;;;5070021;28;20521;-75
2022/12/08 00:43:39;;;;;;;6.45;1.30;;;3.00;99.90;;;;;;5091948;28;20354;-76
2022/12/08 00:46:04;;;;;;;5.93;1.40;;;3.10;99.90;;;;;;5072369;28;20561;-77
2022/12/08 00:48:30;;;;;;;8.40;1.23;;;4.90;99.90;;;;;;5099000;28;20122;-76
2022/12/08 00:50:56;;;;;;;4.82;1.30;;;3.30;99.90;;;;;;5076095;28;20160;-76
2022/12/08 00:53:22;;;;;;;4.88;1.20;;;3.10;99.90;;;;;;5089897;28;20428;-76
2022/12/08 00:55:47;;;;;;;5.55;1.27;;;3.20;99.90;;;;;;5105262;28;20351;-74
2022/12/08 00:58:13;;;;;;;7.50;1.90;;;3.10;99.90;;;;;;5077259;28;20035;-76
2022/12/08 01:00:40;;;;;;;5.50;1.63;;;3.10;99.90;;;;;;5090385;28;20036;-76
2022/12/08 01:03:11;;;;;;;9.32;1.92;;;3.10;99.90;;;;;;5072084;28;20040;-75
2022/12/08 01:05:37;;;;;;;7.93;1.75;;;3.00;99.90;;;;;;5105144;28;20044;-76
2022/12/08 01:08:07;;;;;;;7.18;1.67;;;3.70;99.90;;;;;;5070562;28;20040;-75
2022/12/08 01:10:37;;;;;;;9.30;1.98;;;3.00;99.90;;;;;;5096683;28;20031;-75
2022/12/08 01:13:03;;;;;;;6.90;1.80;;;3.00;99.90;;;;;;5104034;28;20123;-76
2022/12/08 01:15:29;;;;;;;6.70;1.73;;;3.00;99.90;;;;;;5074901;28;20203;-76
2022/12/08 01:17:54;;;;;;;6.03;1.60;;;3.00;99.90;;;;;;5078230;28;20070;-76
2022/12/08 01:20:23;;;;;;;6.53;1.83;;;4.50;99.90;;;;;;5094224;28;20051;-76
2022/12/08 01:22:49;;;;;;;8.60;1.70;;;3.10;99.90;;;;;;5095713;28;20044;-76
2022/12/08 01:25:15;;;;;;;5.20;1.60;;;3.90;99.90;;;;;;5089216;28;20046;-76
2022/12/08 01:27:40;;;;;;;6.18;1.70;;;2.90;99.90;;;;;;5099505;28;20107;-74
2022/12/08 01:30:09;;;;;;;5.50;1.50;;;2.90;99.90;;;;;;5064100;28;20394;-76
2022/12/08 01:32:34;;;;;;;6.60;1.58;;;2.90;99.90;;;;;;5091793;28;20515;-76
2022/12/08 01:35:00;;;;;;;5.25;1.48;;;2.90;99.90;;;;;;5097246;28;20079;-76
2022/12/08 01:37:26;;;;;;;6.60;1.63;;;2.90;99.90;;;;;;5106321;28;20035;-75
2022/12/08 01:39:52;;;;;;;7.97;1.70;;;3.60;99.90;;;;;;5102103;28;20050;-76
2022/12/08 01:42:19;;;;;;;7.53;1.77;;;2.90;99.90;;;;;;5092570;28;20047;-75
2022/12/08 01:44:50;;;;;;;5.38;1.50;;;3.00;99.90;;;;;;5073638;28;20031;-77
2022/12/08 01:47:16;;;;;;;7.38;1.80;;;3.00;99.90;;;;;;5108718;28;20067;-76
2022/12/08 01:49:42;;;;;;;9.73;1.77;;;3.00;99.90;;;;;;5081045;28;20524;-76
2022/12/08 01:52:15;;;;;;;7.47;1.55;;;3.00;99.90;;;;;;5073183;28;20067;-76
2022/12/08 01:54:55;;;;;;;6.65;1.63;;;3.00;99.90;;;;;;5072619;28;20044;-76
2022/12/08 01:57:34;;;;;;;9.07;1.60;;;3.00;99.90;;;;;;5098335;28;20420;-76
2022/12/08 02:00:12;;;;;;;6.70;1.73;;;3.00;99.90;;;;;;5071861;28;20374;-76
2022/12/08 02:02:58;;;;;;;5.10;1.42;;;3.00;99.90;;;;;;5092488;28;20083;-75
2022/12/08 02:05:31;;;;;;;5.70;1.58;;;4.00;99.90;;;;;;5089806;28;20036;-76
2022/12/08 02:08:03;;;;;;;5.65;1.60;;;4.40;99.90;;;;;;5095334;28;20036;-77
2022/12/08 02:10:31;;;;;;;6.10;1.80;;;3.00;99.90;;;;;;5109486;28;20040;-75
2022/12/08 02:12:58;;;;;;;6.72;1.90;;;3.00;99.90;;;;;;5098470;28;20572;-76
2022/12/08 02:15:37;;;;;;;4.70;1.50;;;3.10;99.90;;;;;;5077344;28;20044;-76
2022/12/08 02:18:14;;;;;;;7.35;1.55;;;3.00;99.90;;;;;;5088314;28;20546;-76
2022/12/08 02:21:32;;;;;;;7.68;1.98;;;3.00;99.90;;;;;;5100476;28;20048;-76
2022/12/08 02:24:03;;;;;;;4.30;1.33;;;3.00;99.90;;;;;;5056800;28;20051;-76
2022/12/08 02:26:43;;;;;;;3.60;1.00;;;3.00;99.90;;;;;;5088304;28;20086;-76
2022/12/08 02:29:47;;;;;;;4.72;1.20;;;2.90;99.90;;;;;;5108036;28;20158;-76
2022/12/08 02:32:39;;;;;;;4.38;1.20;;;2.90;99.90;;;;;;5088206;28;20227;-75
2022/12/08 02:35:26;;;;;;;4.82;1.40;;;2.80;99.90;;;;;;5095197;28;20028;-75
2022/12/08 02:38:14;;;;;;;4.00;1.00;;;2.80;99.90;;;;;;5075474;28;20067;-76
2022/12/08 02:41:19;;;;;;;3.85;1.02;;;2.80;99.90;;;;;;5097459;28;20118;-76
2022/12/08 02:43:50;;;;;;;4.35;1.13;;;2.80;99.90;;;;;;5095526;28;20036;-76
2022/12/08 02:46:22;;;;;;;3.70;0.90;;;2.80;99.90;;;;;;5103150;28;20032;-76
2022/12/08 02:48:50;;;;;;;3.20;0.98;;;3.90;99.90;;;;;;5091220;28;20068;-76
2022/12/08 02:51:16;;;;;;;3.35;1.00;;;2.80;99.90;;;;;;5099515;28;20046;-76
2022/12/08 02:53:43;;;;;;;3.10;1.33;;;2.80;99.90;;;;;;5090494;28;20485;-76
2022/12/08 02:56:17;;;;;;;3.70;1.10;;;1.40;99.90;;;;;;5096676;28;20048;-76
2022/12/08 02:58:49;;;;;;;3.65;1.40;;;2.90;99.90;;;;;;5099143;28;20519;-76
2022/12/08 03:01:21;;;;;;;4.78;1.40;;;2.80;99.90;;;;;;5101499;28;20044;-76
2022/12/08 03:03:52;;;;;;;4.78;1.60;;;2.80;99.90;;;;;;5072558;28;20516;-77
2022/12/08 03:06:38;;;;;;;5.07;1.50;;;3.70;99.90;;;;;;5091560;28;20058;-76
2022/12/08 03:09:38;;;;;;;2.60;1.20;;;2.80;99.90;;;;;;5087839;28;20475;-76
2022/12/08 03:12:24;;;;;;;4.45;1.17;;;2.70;99.90;;;;;;5088936;28;20039;-77
2022/12/08 03:15:00;;;;;;;4.03;1.50;;;2.70;99.90;;;;;;5091089;28;20036;-75
2022/12/08 03:17:29;;;;;;;2.75;1.25;;;2.70;99.90;;;;;;5095029;28;20111;-76
2022/12/08 03:20:02;;;;;;;3.08;1.40;;;3.40;99.90;;;;;;5102489;28;20086;-75
2022/12/08 03:22:28;;;;;;;6.22;1.40;;;2.80;99.90;;;;;;5096214;28;20342;-76
2022/12/08 03:24:55;;;;;;;2.17;1.17;;;2.80;99.90;;;;;;5059788;28;20132;-76
2022/12/08 03:27:25;;;;;;;3.30;1.23;;;2.80;99.90;;;;;;5105494;28;20150;-76
2022/12/08 03:29:54;;;;;;;3.35;1.20;;;2.80;99.90;;;;;;5089251;28;20477;-76
2022/12/08 03:32:36;;;;;;;3.13;1.00;;;4.20;99.90;;;;;;5079827;28;20083;-76
2022/12/08 03:35:05;;;;;;;5.07;1.15;;;2.90;99.90;;;;;;5089129;28;20374;-77
2022/12/08 03:37:34;;;;;;;2.42;1.38;;;2.90;99.90;;;;;;5092163;28;20036;-77
2022/12/08 03:40:00;;;;;;;6.15;1.48;;;2.90;99.90;;;;;;5101706;28;20075;-76
2022/12/08 03:42:26;;;;;;;3.17;1.02;;;2.80;99.90;;;;;;5052844;28;20327;-76
2022/12/08 03:44:51;;;;;;;1.65;0.90;;;2.80;99.90;;;;;;5088241;28;20458;-77
2022/12/08 03:47:17;;;;;;;3.50;1.10;;;2.80;99.90;;;;;;5057928;28;20032;-77
2022/12/08 03:49:43;;;;;;;2.20;1.13;;;3.10;99.90;;;;;;5104345;28;20042;-75
2022/12/08 03:52:08;;;;;;;2.00;1.23;;;3.10;99.90;;;;;;5091831;28;20036;-77
2022/12/08 03:54:37;;;;;;;2.15;1.42;;;;;;;;;;5108841;28;20123;-77
2022/12/08 03:57:03;;;;;;;5.20;1.30;;;;;;;;;;5106972;28;20045;-77
2022/12/08 03:59:29;;;;;;;4.20;1.35;;;2.70;99.90;;;;;;5105579;28;20047;-75
2022/12/08 04:01:54;;;;;;;2.58;1.25;;;4.40;99.90;;;;;;5097882;28;20054;-76
2022/12/08 04:04:20;;;;;;;5.25;1.60;;;2.70;99.90;;;;;;5093116;28;20097;-77
2022/12/08 04:06:46;;;;;;;3.50;1.30;;;3.10;99.90;;;;;;5088618;28;20032;-77
2022/12/08 04:09:12;;;;;;;3.33;1.40;;;2.70;99.90;;;;;;5066307;28;20039;-76
2022/12/08 04:11:37;;;;;;;4.55;1.70;;;2.70;99.90;;;;;;5101082;28;20052;-76
2022/12/08 04:14:03;;;;;;;4.53;1.52;;;2.70;99.90;;;;;;5102549;28;20155;-76
2022/12/08 04:16:29;;;;;;;4.78;1.30;;;3.90;99.90;;;;;;5110381;28;20044;-76
2022/12/08 04:18:54;;;;;;;3.05;1.20;;;2.70;99.90;;;;;;5084338;28;20531;-76
2022/12/08 04:21:20;;;;;;;3.58;1.40;;;2.70;99.90;;;;;;5104954;28;20082;-76
2022/12/08 04:23:46;;;;;;;3.97;1.40;;;2.70;99.90;;;;;;5077439;28;20532;-76
2022/12/08 04:26:15;;;;;;;4.75;1.70;;;2.70;99.90;;;;;;5110179;28;20435;-76
2022/12/08 04:28:40;;;;;;;3.95;1.48;;;2.80;99.90;;;;;;5102381;28;20497;-77
2022/12/08 04:31:06;;;;;;;2.22;1.10;;;3.10;99.90;;;;;;5086563;28;20051;-75
2022/12/08 04:33:33;;;;;;;6.28;1.50;;;2.80;99.90;;;;;;5091536;28;20619;-76
2022/12/08 04:36:00;;;;;;;5.28;1.50;;;3.00;99.90;;;;;;5096402;28;20044;-77
2022/12/08 04:38:26;;;;;;;4.13;1.30;;;2.80;99.90;;;;;;5101175;28;20458;-77
2022/12/08 04:40:52;;;;;;;3.55;1.35;;;2.80;99.90;;;;;;5085369;28;20035;-78
2022/12/08 04:43:18;;;;;;;7.05;1.80;;;2.80;99.90;;;;;;5095905;28;20048;-77
2022/12/08 04:45:44;;;;;;;5.95;1.88;;;2.80;99.90;;;;;;5101294;28;20046;-77
2022/12/08 04:48:12;;;;;;;5.53;2.00;;;4.00;99.90;;;;;;5101906;28;20457;-77
2022/12/08 04:50:40;;;;;;;5.88;1.83;;;2.80;99.90;;;;;;5099541;28;20477;-76
2022/12/08 04:53:10;;;;;;;6.05;1.60;;;2.80;99.90;;;;;;5097437;28;20068;-77
2022/12/08 04:55:42;;;;;;;5.10;1.45;;;3.10;99.90;;;;;;5084778;28;20039;-77
2022/12/08 04:58:12;;;;;;;5.03;1.33;;;3.20;99.90;;;;;;5105162;28;20036;-77
2022/12/08 05:00:38;;;;;;;5.05;1.75;;;2.80;99.90;;;;;;5081951;28;20075;-76
2022/12/08 05:03:04;;;;;;;3.40;1.40;;;3.50;99.90;;;;;;5074805;28;20100;-76
2022/12/08 05:05:29;;;;;;;5.57;1.30;;;2.80;99.90;;;;;;5092853;28;20032;-75
2022/12/08 05:07:55;;;;;;;2.67;1.27;;;2.80;99.90;;;;;;5089667;28;20040;-76
2022/12/08 05:10:21;;;;;;;4.78;1.27;;;2.80;99.90;;;;;;5094114;28;20563;-77
2022/12/08 05:12:47;;;;;;;5.13;1.40;;;2.80;99.90;;;;;;5096816;28;20547;-77
2022/12/08 05:15:13;;;;;;;5.70;1.25;;;2.80;99.90;;;;;;5091319;28;20032;-76
2022/12/08 05:17:38;;;;;;;4.53;1.10;;;2.80;99.90;;;;;;5069805;28;20193;-76
2022/12/08 05:20:05;;;;;;;3.15;1.10;;;2.80;99.90;;;;;;5108986;28;20043;-76
2022/12/08 05:22:30;;;;;;;2.42;1.10;;;2.80;99.90;;;;;;5093353;28;20115;-77
2022/12/08 05:24:56;;;;;;;3.53;1.10;;;2.70;99.90;;;;;;5098388;28;20145;-78
2022/12/08 05:27:22;;;;;;;3.10;1.00;;;3.30;99.90;;;;;;5084209;28;20039;-77
2022/12/08 05:29:49;;;;;;;3.50;1.08;;;2.70;99.90;;;;;;5106442;28;20105;-76
2022/12/08 05:32:15;;;;;;;3.05;0.95;;;2.70;99.90;;;;;;5089093;28;20040;-77
2022/12/08 05:34:41;;;;;;;3.22;1.20;;;2.70;99.90;;;;;;5091856;28;20109;-76
2022/12/08 05:37:07;;;;;;;4.07;1.40;;;2.80;99.90;;;;;;5093257;28;20483;-75
2022/12/08 05:39:32;;;;;;;6.95;1.50;;;4.00;99.90;;;;;;5089275;28;20413;-77
2022/12/08 05:42:01;;;;;;;3.67;1.30;;;2.80;99.90;;;;;;5060659;28;20046;-77
2022/12/08 05:44:27;;;;;;;3.85;1.40;;;2.80;99.90;;;;;;5102783;28;20488;-77
2022/12/08 05:46:53;;;;;;;5.70;1.50;;;3.60;99.90;;;;;;5091582;28;20044;-76
2022/12/08 05:49:18;;;;;;;6.32;1.70;;;2.80;99.90;;;;;;5103773;28;20040;-75
2022/12/08 05:51:44;;;;;;;3.80;1.50;;;3.20;99.90;;;;;;5075614;28;20051;-78
2022/12/08 05:54:10;;;;;;;5.95;1.58;;;2.70;99.90;;;;;;5076986;28;20036;-76
2022/12/08 05:56:36;;;;;;;6.03;1.63;;;2.70;99.90;;;;;;5090394;28;20067;-77
2022/12/08 05:59:05;;;;;;;5.32;1.48;;;2.70;99.90;;;;;;5090284;28;20065;-76
2022/12/08 06:01:31;;;;;;;3.97;1.30;;;3.20;99.90;;;;;;5100184;28;20546;-76
2022/12/08 06:03:58;;;;;;;2.15;1.17;;;3.20;99.90;;;;;;5097104;28;20043;-75
2022/12/08 06:06:24;;;;;;;4.85;1.20;;;2.70;99.90;;;;;;5085974;28;20074;-76
2022/12/08 06:08:50;;;;;;;4.65;1.10;;;3.70;99.90;;;;;;5099265;28;20085;-76
2022/12/08 06:11:25;;;;;;;5.75;1.20;;;2.60;99.90;;;;;;5083503;28;20032;-77
2022/12/08 06:13:52;;;;;;;2.20;1.00;;;2.60;99.90;;;;;;5086715;28;20209;-77
2022/12/08 06:16:18;;;;;;;5.70;1.20;;;2.90;99.90;;;;;;5084564;28;20028;-76
2022/12/08 06:18:44;;;;;;;2.83;0.93;;;2.50;99.90;;;;;;5066896;28;20119;-76
2022/12/08 06:21:12;;;;;;;3.92;1.10;;;2.90;99.90;;;;;;5105318;28;20115;-76
2022/12/08 06:23:38;;;;;;;2.55;1.00;;;2.50;99.90;;;;;;5105597;28;20088;-76
2022/12/08 06:26:09;;;;;;;3.60;1.00;;;2.50;99.90;;;;;;5079076;28;20040;-76
2022/12/08 06:28:36;;;;;;;4.47;1.20;;;2.00;99.90;;;;;;5099230;28;20168;-77
2022/12/08 06:31:23;;;;;;;2.40;1.10;;;2.50;99.90;;;;;;5090459;28;20036;-76
2022/12/08 06:33:49;;;;;;;2.35;1.20;;;2.70;99.90;;;;;;5098313;28;20044;-77
2022/12/08 06:36:18;;;;;;;4.82;1.30;;;2.80;99.90;;;;;;5091781;28;20554;-77
2022/12/08 06:38:44;;;;;;;5.75;1.10;;;3.60;99.90;;;;;;5089363;28;20035;-76
2022/12/08 06:41:13;;;;;;;3.28;1.10;;;2.50;99.90;;;;;;5086217;28;20643;-77
2022/12/08 06:43:39;;;;;;;5.18;1.30;;;3.00;99.90;;;;;;5090816;28;20522;-76
2022/12/08 06:46:08;;;;;;;3.70;1.15;;;3.70;99.90;;;;;;5108732;28;20035;-77
2022/12/08 06:48:33;;;;;;;2.88;1.10;;;2.50;99.90;;;;;;5103788;28;20116;-77
2022/12/08 06:51:14;;;;;;;3.95;1.20;;;2.40;99.90;;;;;;5101372;28;20169;-76
2022/12/08 06:53:40;;;;;;;3.55;1.40;;;3.60;99.90;;;;;;5101470;28;20055;-77
2022/12/08 06:56:06;;;;;;;5.03;1.30;;;2.60;99.90;;;;;;5088318;28;20061;-77
2022/12/08 06:58:33;;;;;;;3.83;1.30;;;2.30;99.90;;;;;;5071042;28;20147;-77
2022/12/08 07:01:04;;;;;;;4.43;1.38;;;3.60;99.90;;;;;;5088027;28;20040;-76
2022/12/08 07:03:30;;;;;;;4.32;1.40;;;2.30;99.90;;;;;;5089351;28;20393;-77
2022/12/08 07:05:56;;;;;;;2.92;1.13;;;2.30;99.90;;;;;;5085105;28;20028;-77
2022/12/08 07:08:22;;;;;;;3.22;1.15;;;4.10;99.90;;;;;;5070159;28;20035;-77
2022/12/08 07:10:48;;;;;;;3.55;1.20;;;3.20;99.90;;;;;;5087137;28;20053;-76
2022/12/08 07:13:13;;;;;;;3.30;1.27;;;2.20;99.90;;;;;;5092592;28;20465;-77
2022/12/08 07:15:42;;;;;;;3.83;1.40;;;2.10;99.90;;;;;;5087539;28;20119;-76
2022/12/08 07:18:07;;;;;;;4.18;1.40;;;2.10;99.90;;;;;;5066318;28;20438;-77
2022/12/08 07:20:33;;;;;;;4.60;1.30;;;2.00;99.90;;;;;;5071767;28;20146;-78
2022/12/08 07:22:59;;;;;;;3.60;1.38;;;2.80;99.90;;;;;;5081172;28;20048;-78
2022/12/08 07:25:25;;;;;;;3.72;1.23;;;1.90;99.90;;;;;;5108854;28;20080;-77
2022/12/08 07:27:52;;;;;;;3.50;1.30;;;1.90;99.90;;;;;;5078222;28;20043;-76
2022/12/08 07:30:18;;;;;;;4.35;1.83;;;1.90;99.90;;;;;;5087682;28;20278;-76
2022/12/08 07:32:44;;;;;;;5.55;1.30;;;1.90;99.90;;;;;;5091820;28;20124;-76
2022/12/08 07:35:10;;;;;;;2.58;1.30;;;1.90;99.90;;;;;;5107078;28;20048;-77
2022/12/08 07:37:37;;;;;;;4.40;1.40;;;2.10;99.90;;;;;;5093211;28;20036;-77
2022/12/08 07:40:04;;;;;;;5.50;1.63;;;1.90;99.90;;;;;;5076051;28;20035;-77
2022/12/08 07:42:30;;;;;;;3.83;1.35;;;1.80;99.90;;;;;;5093144;28;20047;-77
2022/12/08 07:44:56;;;;;;;6.20;1.40;;;2.50;99.90;;;;;;5092105;28;20068;-77
2022/12/08 07:47:21;;;;;;;3.60;1.23;;;1.80;99.90;;;;;;5101162;28;20478;-78
2022/12/08 07:49:47;;;;;;;4.32;1.50;;;3.50;99.90;;;;;;5105737;28;20028;-77
2022/12/08 07:52:13;;;;;;;4.25;1.50;;;2.50;99.90;;;;;;5095859;28;20036;-77
2022/12/08 07:54:39;;;;;;;5.07;1.55;;;3.00;99.90;;;;;;5092875;28;20557;-75
2022/12/08 07:57:05;;;;;;;5.65;1.70;;;2.50;99.90;;;;;;5092573;28;20051;-78
2022/12/08 07:59:31;;;;;;;3.15;1.42;;;1.70;99.90;;;;;;5076184;28;20042;-77
2022/12/08 08:01:57;;;;;;;4.95;1.60;;;3.30;99.90;;;;;;5097893;28;20101;-77
2022/12/08 08:04:23;;;;;;;5.85;1.60;;;3.00;99.90;;;;;;5096772;28;20032;-77
2022/12/08 08:06:48;;;;;;;5.72;1.63;;;2.90;99.90;;;;;;5093369;28;20123;-77
2022/12/08 08:09:17;;;;;;;5.45;1.73;;;3.40;99.90;;;;;;5093897;28;20535;-77
2022/12/08 08:11:47;;;;;;;5.80;1.88;;;3.60;99.90;;;;;;5085720;28;20484;-77
2022/12/08 08:14:15;;;;;;;6.32;1.80;;;1.70;99.90;;;;;;5074509;28;20058;-77
2022/12/08 08:16:45;;;;;;;5.40;1.85;;;2.20;99.90;;;;;;5092814;28;20043;-77
2022/12/08 08:19:11;;;;;;;9.38;1.88;;;1.80;99.90;;;;;;5060582;28;20458;-76
2022/12/08 08:21:37;;;;;;;7.30;1.80;;;1.40;99.90;;;;;;5082136;28;20048;-77
2022/12/08 08:24:03;;;;;;;5.38;2.00;;;1.80;99.90;;;;;;5099480;28;20050;-78
2022/12/08 08:26:28;;;;;;;7.07;2.00;;;1.90;99.90;;;;;;5093750;28;20077;-77
2022/12/08 08:28:57;;;;;;;7.30;2.17;;;2.30;99.90;;;;;;5076148;28;20109;-77
2022/12/08 08:31:27;;;;;;;9.07;2.42;;;2.00;99.90;;;;;;5095402;28;20040;-77
2022/12/08 08:33:53;;;;;;;8.90;2.50;;;2.00;99.90;;;;;;5091295;28;20769;-77
2022/12/08 08:36:22;;;;;;;9.70;2.42;;;2.00;99.90;;;;;;5063647;28;20039;-78
2022/12/08 08:38:47;;;;;;;6.32;2.05;;;2.00;99.90;;;;;;5096741;28;20410;-77
2022/12/08 08:41:16;;;;;;;7.93;2.20;;;1.80;99.90;;;;;;5069179;28;20050;-79
2022/12/08 08:43:42;;;;;;;8.70;2.03;;;2.00;99.90;;;;;;5087604;28;20031;-77
2022/12/08 08:46:09;;;;;;;10.52;2.17;;;1.90;99.90;;;;;;5078540;28;20559;-79
2022/12/08 08:48:35;;;;;;;10.65;2.60;;;3.20;99.90;;;;;;5089174;28;20115;-77
2022/12/08 08:51:27;;;;;;;9.48;2.17;;;2.00;99.90;;;;;;5089352;28;20092;-77
2022/12/08 08:53:53;;;;;;;7.80;2.22;;;2.00;99.90;;;;;;5090893;28;20060;-76
2022/12/08 08:56:19;;;;;;;11.30;2.38;;;2.10;99.90;;;;;;5074017;28;20043;-76
2022/12/08 08:58:47;;;;;;;8.15;2.22;;;3.00;99.90;;;;;;5110093;28;20031;-77
2022/12/08 09:01:18;;;;;;;8.23;2.13;;;3.20;99.90;;;;;;5086816;28;20043;-78
2022/12/08 09:03:44;;;;;;;7.35;2.17;;;2.10;99.90;;;;;;5092853;28;20040;-77
2022/12/08 09:06:11;;;;;;;7.88;2.25;;;3.80;99.90;;;;;;5096478;28;20061;-77
2022/12/08 09:08:36;;;;;;;10.23;2.33;;;2.30;99.90;;;;;;5094960;28;20107;-77
2022/12/08 09:11:02;;;;;;;6.57;1.92;;;4.20;99.90;;;;;;5096354;28;20115;-76
2022/12/08 09:13:30;;;;;;;6.78;2.30;;;2.40;99.90;;;;;;5100180;28;21996;-77
2022/12/08 09:15:56;;;;;;;8.57;2.20;;;2.50;99.90;;;;;;5068753;28;20058;-77
2022/12/08 09:18:22;;;;;;;9.68;2.08;;;4.30;99.90;;;;;;5079704;28;20044;-77
2022/12/08 09:20:48;;;;;;;10.05;2.47;;;2.70;99.90;;;;;;5074223;28;20032;-77
2022/12/08 09:23:16;;;;;;;9.70;2.70;;;2.70;99.90;;;;;;5092547;28;20052;-77
2022/12/08 09:25:45;;;;;;;10.45;2.67;;;2.80;99.90;;;;;;5088083;28;20036;-79
2022/12/08 09:28:11;;;;;;;13.18;2.40;;;3.40;99.90;;;;;;5090260;28;20341;-77
2022/12/08 09:30:38;;;;;;;7.28;1.98;;;2.90;99.90;;;;;;5100065;28;20412;-77
2022/12/08 09:33:09;;;;;;;7.03;2.20;;;3.00;99.90;;;;;;5093003;28;20054;-77
2022/12/08 09:35:35;;;;;;;11.23;1.80;;;1.90;99.90;;;;;;5095323;28;20031;-77
2022/12/08 09:38:01;;;;;;;7.22;1.80;;;2.80;99.90;;;;;;5091165;28;20524;-77
2022/12/08 09:40:30;;;;;;;7.45;1.85;;;2.90;99.90;;;;;;5082695;28;20478;-78
2022/12/08 09:43:07;;;;;;;8.70;2.08;;;2.60;99.90;;;;;;5090969;28;20115;-77
2022/12/08 09:45:37;;;;;;;7.75;1.80;;;2.90;99.90;;;;;;5100786;28;20067;-78
2022/12/08 09:48:22;;;;;;;9.20;2.17;;;1.60;99.90;;;;;;5092441;28;20116;-76
2022/12/08 09:50:53;;;;;;;7.90;1.95;;;2.80;99.90;;;;;;5094713;28;20058;-77
2022/12/08 09:53:48;;;;;;;7.78;1.90;;;4.20;99.90;;;;;;5095415;28;20067;-77
2022/12/08 09:56:24;;;;;;;7.40;1.95;;;2.80;99.90;;;;;;5089249;28;20043;-76
2022/12/08 09:58:57;;;;;;;10.60;2.30;;;2.80;99.90;;;;;;5089608;28;20032;-77
2022/12/08 10:01:28;;;;;;;7.10;1.90;;;2.70;99.90;;;;;;5099944;28;20068;-77
2022/12/08 10:03:54;;;;;;;8.05;2.33;;;2.70;99.90;;;;;;5072238;28;20110;-76
2022/12/08 10:06:40;;;;;;;7.93;2.22;;;1.90;99.90;;;;;;5088171;28;20439;-77
2022/12/08 10:09:34;;;;;;;10.00;2.53;;;2.70;99.90;;;;;;5095923;28;20072;-77
2022/12/08 10:12:18;;;;;;;7.13;2.00;;;2.70;99.90;;;;;;5098249;28;20547;-77
2022/12/08 10:14:57;;;;;;;8.32;2.17;;;2.70;99.90;;;;;;5091586;28;20038;-77
2022/12/08 10:17:44;;;;;;;11.20;2.20;;;2.70;99.90;;;;;;5091722;28;20408;-77
2022/12/08 10:20:15;;;;;;;9.85;2.28;;;3.70;99.90;;;;;;5096413;28;20424;-76
2022/12/08 10:22:40;;;;;;;7.82;2.30;;;2.60;99.90;;;;;;5094711;28;20051;-77
2022/12/08 10:25:14;;;;;;;7.47;2.00;;;2.70;99.90;;;;;;5094118;28;20031;-77
2022/12/08 10:27:45;;;;;;;9.50;2.00;;;2.70;99.90;;;;;;5089733;28;20143;-76
2022/12/08 10:30:17;;;;;;;7.95;2.00;;;4.30;99.90;;;;;;5088252;28;20436;-77
2022/12/08 10:32:46;;;;;;;7.55;1.90;;;2.80;99.90;;;;;;5090758;28;20051;-77
2022/12/08 10:35:18;;;;;;;8.73;2.00;;;1.90;99.90;;;;;;5104426;28;20044;-77
2022/12/08 10:38:21;;;;;;;6.70;1.88;;;2.90;99.90;;;;;;5101180;28;20439;-77
2022/12/08 10:40:49;;;;;;;7.25;1.90;;;3.00;99.90;;;;;;5024688;28;20514;-78
2022/12/08 10:43:20;;;;;;;8.98;1.98;;;3.20;99.90;;;;;;5086260;28;20044;-77
2022/12/08 10:45:46;;;;;;;9.27;2.38;;;3.30;99.90;;;;;;5096672;28;20122;-77
2022/12/08 10:48:25;;;;;;;7.45;2.17;;;3.60;99.90;;;;;;5089567;28;20031;-76
2022/12/08 10:50:51;;;;;;;7.95;1.90;;;3.60;99.90;;;;;;5091931;28;20043;-77
2022/12/08 10:53:30;;;;;;;7.80;1.80;;;3.50;99.90;;;;;;5073695;28;20109;-77
2022/12/08 10:56:02;;;;;;;5.38;1.80;;;3.80;99.90;;;;;;5093258;28;20039;-76
2022/12/08 10:58:35;;;;;;;8.85;2.03;;;3.90;99.90;;;;;;5094376;28;20039;-76
2022/12/08 11:01:22;;;;;;;7.95;1.90;;;3.90;99.90;;;;;;5093074;28;20118;-77
2022/12/08 11:04:00;;;;;;;7.38;1.70;;;3.90;99.90;;;;;;5091405;28;20064;-77
2022/12/08 11:06:33;;;;;;;7.38;1.70;;;3.80;99.90;;;;;;5092432;28;20508;-77
2022/12/08 11:09:16;;;;;;;5.85;1.80;;;3.80;99.90;;;;;;5101746;28;20042;-77
2022/12/08 11:11:53;;;;;;;5.80;1.80;;;3.80;99.90;;;;;;5080879;28;20040;-77
2022/12/08 11:14:23;;;;;;;5.53;1.70;;;4.50;99.90;;;;;;5092940;28;20032;-77
2022/12/08 11:17:08;;;;;;;5.13;1.67;;;4.00;99.90;;;;;;5088537;28;20047;-77
2022/12/08 11:19:39;;;;;;;4.90;1.60;;;3.70;99.90;;;;;;5100622;28;20443;-77
2022/12/08 11:22:23;;;;;;;8.38;1.88;;;3.70;99.90;;;;;;5071629;28;20556;-76
2022/12/08 11:25:07;;;;;;;4.35;1.50;;;3.80;99.90;;;;;;5091621;28;20036;-76
2022/12/08 11:27:35;;;;;;;6.82;1.77;;;3.80;99.90;;;;;;5100953;28;20039;-77
2022/12/08 11:30:05;;;;;;;5.90;1.42;;;4.10;99.90;;;;;;5073541;28;20212;-76
2022/12/08 11:32:31;;;;;;;4.93;1.40;;;3.90;99.90;;;;;;5095926;28;20516;-76
2022/12/08 11:35:04;;;;;;;5.80;1.77;;;4.30;99.90;;;;;;5091597;28;20028;-79
2022/12/08 11:37:48;;;;;;;7.97;1.58;;;3.90;99.90;;;;;;5092919;28;20105;-77
2022/12/08 11:40:33;;;;;;;6.95;1.70;;;4.70;99.90;;;;;;5103254;28;20028;-76
2022/12/08 11:43:27;;;;;;;6.65;1.88;;;4.00;99.90;;;;;;5091819;28;20101;-76
2022/12/08 11:46:37;;;;;;;5.28;1.90;;;4.00;99.90;;;;;;5090587;28;20126;-76
2022/12/08 11:49:08;;;;;;;6.78;1.90;;;4.10;99.90;;;;;;5064141;28;20044;-77
2022/12/08 11:51:46;;;;;;;5.50;1.60;;;5.30;99.90;;;;;;5089938;28;20047;-76
2022/12/08 11:54:26;;;;;;;4.50;1.40;;;4.30;99.90;;;;;;5091115;28;20040;-76
2022/12/08 11:56:55;;;;;;;5.22;1.40;;;4.30;99.90;;;;;;5074600;28;20190;-77
2022/12/08 11:59:31;;;;;;;4.45;1.50;;;4.30;99.90;;;;;;5091230;28;20035;-76
2022/12/08 12:02:00;;;;;;;3.78;1.50;;;4.30;99.90;;;;;;5074529;28;20040;-77
2022/12/08 12:04:34;;;;;;;5.10;1.40;;;5.70;99.90;;;;;;5084257;28;20046;-76
2022/12/08 12:07:06;;;;;;;5.35;1.33;;;4.60;99.90;;;;;;5094795;28;20074;-77
2022/12/08 12:09:31;;;;;;;5.50;1.75;;;4.40;99.90;;;;;;5079237;28;20035;-77
2022/12/08 12:12:27;;;;;;;4.85;1.30;;;5.00;99.90;;;;;;5091160;28;20119;-77
2022/12/08 12:15:21;;;;;;;4.82;1.38;;;4.40;99.90;;;;;;5091106;28;20498;-78
2022/12/08 12:18:11;;;;;;;6.03;1.42;;;4.30;99.90;;;;;;5090702;28;20093;-76
2022/12/08 12:20:53;;;;;;;4.93;1.45;;;4.30;99.90;;;;;;5077233;28;20266;-77
2022/12/08 12:23:23;;;;;;;4.28;1.27;;;4.50;99.90;;;;;;5090713;28;20502;-76
2022/12/08 12:25:59;;;;;;;2.30;1.10;;;4.30;99.90;;;;;;5090681;28;20029;-78
2022/12/08 12:28:39;;;;;;;5.70;1.70;;;4.90;99.90;;;;;;5096826;28;20138;-77
2022/12/08 12:31:08;;;;;;;6.88;1.60;;;4.30;99.90;;;;;;5088441;28;20050;-77
2022/12/08 12:33:37;;;;;;;4.53;1.50;;;4.30;99.90;;;;;;5098808;28;20070;-77
2022/12/08 12:36:09;;;;;;;3.17;1.20;;;4.30;99.90;;;;;;5058437;28;20086;-79
2022/12/08 12:41:27;;;;;;;4.72;1.35;;;4.50;99.90;;;;;;5091252;28;20362;-77
2022/12/08 12:44:11;;;;;;;8.75;1.80;;;4.60;99.90;;;;;;5093704;28;20509;-77
2022/12/08 12:46:47;;;;;;;4.80;1.40;;;5.60;99.90;;;;;;5072183;28;20052;-76
2022/12/08 12:50:02;;;;;;;7.97;1.65;;;4.70;99.90;;;;;;5090581;28;20028;-77
2022/12/08 12:52:31;;;;;;;5.45;1.40;;;4.80;99.90;;;;;;5047666;28;20178;-78
2022/12/08 12:54:56;;;;;;;6.80;1.83;;;5.30;99.90;;;;;;5058556;28;20039;-76
2022/12/08 12:57:24;;;;;;;4.72;1.42;;;4.90;99.90;;;;;;5076027;28;20067;-77
2022/12/08 12:59:53;;;;;;;5.45;1.63;;;5.00;99.90;;;;;;5090265;28;20543;-77
2022/12/08 13:02:21;;;;;;;5.38;1.60;;;5.00;99.90;;;;;;5102217;28;20043;-77
2022/12/08 13:04:55;;;;;;;7.22;1.85;;;6.50;99.90;;;;;;5075661;28;20048;-77
2022/12/08 13:07:53;;;;;;;5.13;1.30;;;5.00;99.90;;;;;;5082558;28;20465;-76
2022/12/08 13:10:36;;;;;;;8.82;1.67;;;5.10;99.90;;;;;;5092279;28;20044;-77
2022/12/08 13:13:15;;;;;;;2.63;0.93;;;5.10;99.90;;;;;;5093979;28;20044;-76
2022/12/08 13:15:52;;;;;;;2.88;0.68;;;5.00;99.90;;;;;;5071970;28;20047;-76
2022/12/08 13:18:23;;;;;;;4.63;0.82;;;6.00;99.90;;;;;;5096025;28;20039;-76
2022/12/08 13:21:14;;;;;;;1.48;0.80;;;4.70;99.90;;;;;;5089829;28;20072;-76
2022/12/08 13:24:09;;;;;;;2.08;1.00;;;4.60;99.90;;;;;;5090163;28;20067;-76
2022/12/08 13:26:46;;;;;;;1.80;0.68;;;4.40;99.90;;;;;;5089071;28;20067;-75